createdAt,value
2022-10-14T00:01:41.306Z,0
2022-10-14T00:11:18.707Z,0
2022-10-14T00:20:56.236Z,0
2022-10-14T00:30:33.382Z,0
2022-10-14T00:40:10.379Z,0
2022-10-14T00:49:47.706Z,0
2022-10-14T00:59:24.912Z,0
2022-10-14T01:09:02.372Z,0
2022-10-14T01:28:16.872Z,0
2022-10-14T01:37:54.068Z,0
2022-10-14T01:47:31.683Z,0
2022-10-14T01:57:08.801Z,0
2022-10-14T02:06:46.048Z,0
2022-10-14T02:16:23.473Z,0
2022-10-14T02:26:00.554Z,0
2022-10-14T02:35:37.630Z,0
2022-10-14T02:45:14.802Z,0
2022-10-14T02:54:51.678Z,0
2022-10-14T03:14:06.467Z,0
2022-10-14T03:23:43.790Z,0
2022-10-14T04:11:50.202Z,0
2022-10-14T04:21:27.638Z,0
2022-10-14T04:31:04.830Z,0
2022-10-14T04:40:41.928Z,0
2022-10-14T04:50:19.193Z,0
2022-10-14T05:09:33.625Z,0
2022-10-14T05:19:11.049Z,0
2022-10-14T05:38:25.550Z,0
2022-10-14T05:48:02.773Z,0
2022-10-14T05:57:40.151Z,5.63
2022-10-14T06:07:16.695Z,11.25
2022-10-14T06:26:32.272Z,28.13
2022-10-14T06:36:09.902Z,56.25
2022-10-14T06:55:24.393Z,56.25
2022-10-14T07:05:01.955Z,78.75
2022-10-14T07:14:39.344Z,101.25
2022-10-14T07:33:54.878Z,168.75
2022-10-14T07:43:33.017Z,180
2022-10-14T07:53:10.810Z,196.88
2022-10-14T08:02:49.355Z,258.75
2022-10-14T08:12:27.678Z,253.13
2022-10-14T08:22:05.608Z,275.63
2022-10-14T08:31:43.771Z,326.25
2022-10-14T08:41:22.224Z,354.38
2022-10-14T08:51:00.689Z,427.5
2022-10-14T09:00:39.387Z,371.25
2022-10-14T09:10:17.549Z,421.88
2022-10-14T09:39:13.711Z,630
2022-10-14T09:48:51.268Z,528.75
2022-10-14T09:58:28.795Z,590.63
2022-10-14T10:08:07.551Z,630
2022-10-14T10:17:44.496Z,461.25
2022-10-14T10:27:21.829Z,528.75
2022-10-14T10:37:02.680Z,765
2022-10-14T10:47:00.357Z,669.38
2022-10-14T10:56:29.531Z,264.38
2022-10-14T11:06:03.478Z,483.75
2022-10-14T11:15:42.376Z,1091.25
2022-10-14T11:25:24.273Z,922.5
2022-10-14T11:35:05.554Z,894.38
2022-10-14T11:44:40.775Z,607.5
2022-10-14T11:54:15.360Z,804.38
2022-10-14T12:04:01.358Z,1051.88
2022-10-14T12:13:42.114Z,928.13
2022-10-14T12:23:13.045Z,348.75
2022-10-14T12:32:45.317Z,135
2022-10-14T13:01:33.734Z,84.38
2022-10-14T13:11:08.364Z,112.5
2022-10-14T13:20:46.089Z,191.25
2022-10-14T13:30:28.256Z,1136.25
2022-10-14T13:40:00.649Z,270
2022-10-14T13:49:37.753Z,343.13
2022-10-14T13:59:21.751Z,298.13
2022-10-14T14:08:51.873Z,483.75
2022-10-14T14:18:55.921Z,703.13
2022-10-14T14:28:14.339Z,281.25
2022-10-14T14:37:55.480Z,95.63
2022-10-14T14:56:58.734Z,118.13
2022-10-14T15:16:12.592Z,112.5
2022-10-14T15:25:48.747Z,56.25
2022-10-14T15:35:24.902Z,33.75
2022-10-14T15:45:01.489Z,33.75
2022-10-14T15:54:37.724Z,33.75
2022-10-14T16:04:14.174Z,28.13
2022-10-14T16:13:50.487Z,5.63
2022-10-14T16:23:29.524Z,0
2022-10-14T16:33:04.164Z,0
2022-10-14T16:42:40.803Z,0
2022-10-14T16:52:17.498Z,0
2022-10-14T17:11:31.941Z,0
2022-10-14T17:21:08.803Z,0
2022-10-14T17:30:45.243Z,0
2022-10-14T17:40:22.083Z,0
2022-10-14T17:49:58.913Z,0
2022-10-14T17:59:35.958Z,0
2022-10-14T18:09:12.844Z,0
2022-10-14T18:18:49.693Z,0
2022-10-14T18:28:27.113Z,0
2022-10-14T18:38:04.246Z,0
2022-10-14T18:57:17.901Z,0
2022-10-14T19:06:54.861Z,0
2022-10-14T19:16:31.687Z,0
2022-10-14T19:26:09.185Z,0
2022-10-14T19:35:46.486Z,0
2022-10-14T19:45:23.679Z,0
2022-10-14T19:54:59.794Z,0
2022-10-14T20:14:13.507Z,0
2022-10-14T20:23:50.229Z,0
2022-10-14T20:33:27.472Z,0
2022-10-14T20:43:04.572Z,0
2022-10-14T20:52:41.969Z,0
2022-10-14T21:02:18.000Z,0
2022-10-14T21:11:55.313Z,0
2022-10-14T21:21:32.344Z,0
2022-10-14T21:31:09.737Z,0
2022-10-14T21:40:46.950Z,0
2022-10-14T21:50:24.159Z,0
2022-10-14T22:28:51.973Z,0
2022-10-14T22:38:29.127Z,0
2022-10-14T22:48:06.621Z,0
2022-10-14T22:57:44.026Z,0
2022-10-14T23:07:21.458Z,0
2022-10-14T23:16:58.858Z,0
2022-10-14T23:26:36.146Z,0
2022-10-14T23:55:27.676Z,0
